Time;durP1;ratioP1;P1;durP2;ratioP2;P2;SDS_P1;SDS_P2;PMS_P1;PMS_P2;Temp;Humidity;BMP_temperature;BMP_pressure;BME280_temperature;BME280_humidity;BME280_pressure;Samples;Min_cycle;Max_cycle;Signal;HPM_P1;HPM_P2
2022/04/11 00:02:01;;;;;;;16.58;8.07;;;0.80;99.90;;;;;;5055854;28;20048;-88
2022/04/11 00:04:28;;;;;;;15.60;7.72;;;0.80;99.90;;;;;;5055711;28;20052;-88
2022/04/11 00:06:54;;;;;;;15.35;7.53;;;0.70;99.90;;;;;;5037467;28;20124;-88
2022/04/11 00:09:20;;;;;;;18.20;8.18;;;0.70;99.90;;;;;;5037691;28;20452;-88
2022/04/11 00:11:46;;;;;;;15.52;7.88;;;0.70;99.90;;;;;;5055428;28;20128;-88
2022/04/11 00:14:13;;;;;;;14.98;7.93;;;0.70;99.90;;;;;;5054626;28;20544;-88
2022/04/11 00:16:39;;;;;;;15.38;7.65;;;0.70;99.90;;;;;;5037361;28;20041;-88
2022/04/11 00:19:05;;;;;;;15.07;7.20;;;0.60;99.90;;;;;;5020866;28;20498;-88
2022/04/11 00:21:31;;;;;;;14.02;7.03;;;0.60;99.90;;;;;;5021109;28;20421;-88
2022/04/11 00:23:57;;;;;;;14.48;6.88;;;0.60;99.90;;;;;;5054902;28;20123;-88
2022/04/11 00:26:23;;;;;;;15.85;6.85;;;0.60;99.90;;;;;;5037415;28;20099;-88
2022/04/11 00:28:49;;;;;;;16.23;7.80;;;0.60;99.90;;;;;;5037437;28;20045;-88
2022/04/11 00:31:14;;;;;;;14.20;7.28;;;0.50;99.90;;;;;;5037640;28;20045;-88
2022/04/11 00:33:40;;;;;;;15.55;7.45;;;0.50;99.90;;;;;;5020874;28;20055;-88
2022/04/11 00:36:05;;;;;;;18.30;7.70;;;0.50;99.90;;;;;;5020845;28;20061;-88
2022/04/11 00:38:31;;;;;;;16.17;7.43;;;0.50;99.90;;;;;;5020441;28;20150;-88
2022/04/11 00:40:57;;;;;;;21.35;7.40;;;0.50;99.90;;;;;;5037750;28;20114;-88
2022/04/11 00:43:36;;;;;;;14.32;7.40;;;0.50;99.90;;;;;;5021100;28;20064;-88
2022/04/11 00:46:03;;;;;;;11.43;6.72;;;0.40;99.90;;;;;;5020829;28;20394;-88
2022/04/11 00:48:29;;;;;;;13.65;6.80;;;0.40;99.90;;;;;;5037153;28;20053;-88
2022/04/11 00:50:59;;;;;;;13.30;6.57;;;0.40;99.90;;;;;;5020589;28;20045;-88
2022/04/11 00:53:26;;;;;;;14.77;6.97;;;0.40;99.90;;;;;;5036691;28;20130;-88
2022/04/11 00:55:54;;;;;;;15.60;7.93;;;0.40;99.90;;;;;;5036770;28;20051;-88
2022/04/11 00:58:21;;;;;;;14.60;6.70;;;0.40;99.90;;;;;;5020017;28;20506;-88
2022/04/11 01:00:47;;;;;;;12.75;7.32;;;0.30;99.90;;;;;;5036822;28;20076;-88
2022/04/11 01:03:12;;;;;;;14.40;6.60;;;0.30;99.90;;;;;;5053473;28;20083;-89
2022/04/11 01:05:38;;;;;;;12.88;6.80;;;0.30;99.90;;;;;;5054133;28;20045;-88
2022/04/11 01:08:09;;;;;;;16.60;6.90;;;0.30;99.90;;;;;;5052917;28;20049;-88
2022/04/11 01:10:35;;;;;;;13.00;7.20;;;0.30;99.90;;;;;;5036493;28;20092;-88
2022/04/11 01:13:02;;;;;;;11.15;6.60;;;0.30;99.90;;;;;;5019973;28;20041;-88
2022/04/11 01:15:27;;;;;;;12.07;6.75;;;0.30;99.90;;;;;;5020139;28;20085;-88
2022/04/11 01:17:53;;;;;;;15.48;6.72;;;0.30;99.90;;;;;;5036244;28;20552;-88
2022/04/11 01:20:20;;;;;;;12.45;7.35;;;0.30;99.90;;;;;;5054239;28;20045;-88
2022/04/11 01:22:46;;;;;;;11.57;6.82;;;0.30;99.90;;;;;;5052936;28;20049;-88
2022/04/11 01:25:13;;;;;;;14.40;7.32;;;0.30;99.90;;;;;;5054020;28;20482;-89
2022/04/11 01:27:41;;;;;;;12.30;7.05;;;0.30;99.90;;;;;;5020051;28;20036;-88
2022/04/11 01:30:10;;;;;;;13.57;7.05;;;0.30;99.90;;;;;;5036445;28;20071;-88
2022/04/11 01:32:36;;;;;;;15.45;7.47;;;0.30;99.90;;;;;;5036308;28;20052;-88
2022/04/11 01:35:02;;;;;;;13.27;6.97;;;0.20;99.90;;;;;;5035888;28;20132;-88
2022/04/11 01:37:28;;;;;;;16.52;7.30;;;0.20;99.90;;;;;;5035637;28;20091;-88
2022/04/11 01:39:54;;;;;;;14.93;7.60;;;0.20;99.90;;;;;;5036294;28;20479;-88
2022/04/11 01:42:20;;;;;;;13.20;6.85;;;0.20;99.90;;;;;;5036166;28;20045;-89
2022/04/11 01:44:45;;;;;;;12.52;6.88;;;0.20;99.90;;;;;;5019551;28;20049;-88
2022/04/11 01:47:12;;;;;;;12.85;6.95;;;0.20;99.90;;;;;;5053369;28;20098;-88
2022/04/11 01:49:38;;;;;;;9.45;6.18;;;0.20;99.90;;;;;;5035922;28;20045;-88
2022/04/11 01:52:04;;;;;;;13.70;7.68;;;0.20;99.90;;;;;;5053234;28;20384;-88
2022/04/11 01:54:30;;;;;;;15.15;7.13;;;0.20;99.90;;;;;;5035113;28;20037;-88
2022/04/11 01:56:56;;;;;;;11.50;7.28;;;0.20;99.90;;;;;;5035712;28;20037;-88
2022/04/11 01:59:22;;;;;;;12.50;7.05;;;0.20;99.90;;;;;;5052474;28;20068;-88
2022/04/11 02:01:47;;;;;;;12.18;6.88;;;0.20;99.90;;;;;;5035845;28;20044;-87
2022/04/11 02:04:13;;;;;;;13.88;6.95;;;0.20;99.90;;;;;;5035594;28;20053;-88
2022/04/11 02:06:39;;;;;;;14.95;6.53;;;0.20;99.90;;;;;;5019033;28;20131;-88
2022/04/11 02:09:04;;;;;;;19.92;7.43;;;0.20;99.90;;;;;;5035254;28;20465;-88
2022/04/11 02:11:30;;;;;;;11.35;6.10;;;0.20;99.90;;;;;;5035524;28;20096;-88
2022/04/11 02:13:56;;;;;;;14.05;6.38;;;0.30;99.90;;;;;;5035771;28;20408;-88
2022/04/11 02:16:24;;;;;;;12.15;6.43;;;0.30;99.90;;;;;;5035540;28;20045;-87
2022/04/11 02:18:50;;;;;;;14.35;6.15;;;0.30;99.90;;;;;;5018644;28;20482;-87
2022/04/11 02:21:15;;;;;;;14.07;6.68;;;0.30;99.90;;;;;;5051768;28;20148;-88
2022/04/11 02:23:41;;;;;;;11.43;5.70;;;0.40;99.90;;;;;;5018259;28;20060;-87
2022/04/11 02:26:07;;;;;;;13.90;6.18;;;0.40;99.90;;;;;;5018598;28;20060;-87
2022/04/11 02:28:33;;;;;;;15.88;6.18;;;0.40;99.90;;;;;;5035438;28;20052;-88
2022/04/11 02:30:59;;;;;;;11.52;6.10;;;0.40;99.90;;;;;;5035296;28;20051;-87
2022/04/11 02:33:24;;;;;;;12.07;5.95;;;0.50;99.90;;;;;;5035072;28;20076;-88
2022/04/11 02:35:50;;;;;;;10.27;6.30;;;0.50;99.90;;;;;;5035012;28;20045;-88
2022/04/11 02:38:16;;;;;;;10.32;6.20;;;0.50;99.90;;;;;;5051456;28;20481;-87
2022/04/11 02:40:41;;;;;;;11.07;6.28;;;0.50;99.90;;;;;;5053025;28;20490;-88
2022/04/11 02:43:07;;;;;;;11.38;5.80;;;0.50;99.90;;;;;;5035168;28;20053;-88
2022/04/11 02:45:33;;;;;;;12.27;6.57;;;0.50;99.90;;;;;;5018729;28;20037;-88
2022/04/11 02:47:58;;;;;;;13.93;6.20;;;0.50;99.90;;;;;;5018418;28;20048;-88
2022/04/11 02:50:24;;;;;;;10.38;5.65;;;0.50;99.90;;;;;;5034898;28;20071;-88
2022/04/11 02:52:50;;;;;;;11.82;6.15;;;0.50;99.90;;;;;;5051372;28;20132;-88
2022/04/11 02:55:16;;;;;;;13.40;6.25;;;0.50;99.90;;;;;;5051837;28;20049;-88
2022/04/11 02:57:41;;;;;;;12.82;5.68;;;0.40;99.90;;;;;;5026392;28;20570;-88
2022/04/11 03:00:14;;;;;;;10.18;6.38;;;0.40;99.90;;;;;;4998600;28;20148;-88
2022/04/11 03:02:41;;;;;;;14.27;5.72;;;0.40;99.90;;;;;;5015172;28;20534;-88
2022/04/11 03:05:07;;;;;;;11.70;6.35;;;0.30;99.90;;;;;;5014601;28;20073;-88
2022/04/11 03:07:33;;;;;;;10.90;5.95;;;0.30;99.90;;;;;;4997875;28;20057;-88
2022/04/11 03:09:59;;;;;;;11.10;5.75;;;0.30;99.90;;;;;;5031105;28;20041;-88
2022/04/11 03:12:27;;;;;;;12.07;5.88;;;0.20;99.90;;;;;;5015093;28;20136;-88
2022/04/11 03:14:53;;;;;;;14.57;5.72;;;0.30;99.90;;;;;;5015078;28;20132;-88
2022/04/11 03:17:19;;;;;;;9.40;5.78;;;0.20;99.90;;;;;;4998520;28;20136;-88
2022/04/11 03:19:45;;;;;;;12.88;6.20;;;0.20;99.90;;;;;;5014783;28;20073;-88
2022/04/11 03:22:11;;;;;;;10.02;5.72;;;0.20;99.90;;;;;;5014816;28;20041;-88
2022/04/11 03:24:37;;;;;;;11.65;5.82;;;0.10;99.90;;;;;;5014997;28;20609;-88
2022/04/11 03:27:03;;;;;;;9.65;5.75;;;0.10;99.90;;;;;;4998319;28;20053;-88
2022/04/11 03:29:29;;;;;;;11.95;6.28;;;0.10;99.90;;;;;;4998162;28;20052;-88
2022/04/11 03:31:54;;;;;;;9.48;5.47;;;0.10;99.90;;;;;;5032132;28;20084;-88
2022/04/11 03:34:20;;;;;;;9.98;5.80;;;0.10;99.90;;;;;;5014497;28;20072;-88
2022/04/11 03:36:45;;;;;;;10.57;5.95;;;0.10;99.90;;;;;;5014410;28;20433;-88
2022/04/11 03:39:11;;;;;;;14.48;6.28;;;0.10;99.90;;;;;;5032052;28;20057;-88
2022/04/11 03:41:37;;;;;;;13.85;6.53;;;0.10;99.90;;;;;;5014199;28;20061;-88
2022/04/11 03:44:03;;;;;;;12.85;6.03;;;0.10;99.90;;;;;;4998429;28;20056;-88
2022/04/11 03:46:29;;;;;;;14.55;6.15;;;0.20;99.90;;;;;;5014677;28;20410;-88
2022/04/11 03:48:55;;;;;;;12.70;6.13;;;0.20;99.90;;;;;;5014571;28;20049;-88
2022/04/11 03:51:20;;;;;;;10.73;5.97;;;0.30;99.90;;;;;;5014800;28;20132;-88
2022/04/11 03:53:49;;;;;;;13.45;6.10;;;0.30;99.90;;;;;;4998241;28;20137;-88
2022/04/11 03:56:17;;;;;;;15.05;5.30;;;0.40;99.90;;;;;;4997795;28;20060;-88
2022/04/11 03:58:43;;;;;;;9.65;5.68;;;0.40;99.90;;;;;;5013179;28;20059;-88
2022/04/11 04:01:09;;;;;;;14.15;6.07;;;0.50;99.90;;;;;;5034298;28;20057;-88
2022/04/11 04:03:37;;;;;;;9.68;4.93;;;0.60;99.90;;;;;;5051907;28;20064;-88
2022/04/11 04:06:03;;;;;;;14.25;6.00;;;0.60;99.90;;;;;;5034196;28;20084;-88
2022/04/11 04:08:29;;;;;;;9.70;5.78;;;0.80;99.90;;;;;;5051053;28;20477;-88
2022/04/11 04:10:55;;;;;;;10.20;4.97;;;0.80;99.90;;;;;;5037691;28;20060;-88
2022/04/11 04:13:20;;;;;;;13.75;5.70;;;0.80;99.90;;;;;;5055754;28;20123;-88
2022/04/11 04:15:46;;;;;;;8.90;5.57;;;0.90;99.90;;;;;;5037652;28;20490;-89
2022/04/11 04:18:12;;;;;;;8.77;5.07;;;0.90;99.90;;;;;;5055385;28;20037;-88
2022/04/11 04:20:41;;;;;;;11.02;5.15;;;1.00;99.90;;;;;;5037658;28;20045;-88
2022/04/11 04:23:07;;;;;;;9.35;5.05;;;1.10;99.90;;;;;;5037503;28;20049;-88
2022/04/11 04:25:36;;;;;;;11.43;5.28;;;1.20;99.90;;;;;;5037044;28;20076;-89
2022/04/11 04:28:02;;;;;;;7.65;5.20;;;1.10;99.90;;;;;;5054351;28;20040;-88
2022/04/11 04:30:28;;;;;;;9.05;5.70;;;1.30;99.90;;;;;;5037588;28;20080;-88
2022/04/11 04:32:56;;;;;;;11.57;5.22;;;1.40;99.90;;;;;;5020977;28;20095;-88
2022/04/11 04:35:21;;;;;;;10.05;4.72;;;1.40;99.90;;;;;;5037187;28;20127;-88
2022/04/11 04:37:48;;;;;;;7.05;4.72;;;1.40;99.90;;;;;;5037078;28;20133;-88
2022/04/11 04:40:13;;;;;;;12.60;5.05;;;1.50;99.90;;;;;;5037143;28;20059;-88
2022/04/11 04:42:39;;;;;;;8.75;4.78;;;1.50;99.90;;;;;;5037411;28;20128;-89
2022/04/11 04:45:06;;;;;;;6.80;4.47;;;1.60;99.90;;;;;;5036298;28;20068;-89
2022/04/11 04:47:32;;;;;;;6.82;4.43;;;1.60;99.90;;;;;;5054273;28;20068;-88
2022/04/11 04:49:57;;;;;;;8.98;4.85;;;1.70;99.90;;;;;;5020254;28;20059;-88
2022/04/11 04:52:23;;;;;;;8.93;4.45;;;1.70;99.90;;;;;;5054105;28;20048;-88
2022/04/11 04:54:49;;;;;;;7.38;4.43;;;1.70;99.90;;;;;;5019837;28;20482;-89
2022/04/11 04:57:14;;;;;;;8.10;4.60;;;1.80;99.90;;;;;;5035560;28;20049;-88
2022/04/11 04:59:40;;;;;;;6.95;4.18;;;1.90;99.90;;;;;;5036854;28;20068;-88
2022/04/11 05:02:06;;;;;;;10.30;4.63;;;1.80;99.90;;;;;;5036769;28;20051;-88
2022/04/11 05:04:32;;;;;;;10.00;4.72;;;1.90;99.90;;;;;;5036639;28;20037;-88
2022/04/11 05:06:58;;;;;;;10.32;4.93;;;1.90;99.90;;;;;;5020302;28;20391;-88
2022/04/11 05:09:23;;;;;;;8.88;4.43;;;2.00;99.90;;;;;;5020071;28;20084;-89
2022/04/11 05:11:49;;;;;;;8.52;4.43;;;2.00;99.90;;;;;;5053200;28;20037;-88
2022/04/11 05:14:15;;;;;;;5.80;3.42;;;2.10;99.90;;;;;;5036537;28;20045;-88
2022/04/11 05:16:40;;;;;;;7.40;4.05;;;2.10;99.90;;;;;;5036582;28;20067;-89
2022/04/11 05:19:06;;;;;;;7.07;3.58;;;2.20;99.90;;;;;;5036434;28;20065;-89
2022/04/11 05:21:32;;;;;;;10.93;3.83;;;2.20;99.90;;;;;;5035547;28;20041;-88
2022/04/11 05:23:57;;;;;;;7.93;3.92;;;2.30;99.90;;;;;;5036341;28;20131;-88
2022/04/11 05:26:23;;;;;;;6.13;3.47;;;2.30;99.90;;;;;;5053839;28;20044;-88
2022/04/11 05:28:49;;;;;;;11.38;3.67;;;2.40;99.90;;;;;;5020377;28;20471;-89
2022/04/11 05:31:15;;;;;;;10.73;4.20;;;2.40;99.90;;;;;;5019838;28;20402;-88
2022/04/11 05:33:41;;;;;;;8.05;3.42;;;2.50;99.90;;;;;;5036225;28;20051;-88
2022/04/11 05:36:07;;;;;;;11.65;3.55;;;2.50;99.90;;;;;;5019959;28;20061;-89
2022/04/11 05:38:32;;;;;;;10.52;3.80;;;2.50;99.90;;;;;;5036081;28;20049;-88
2022/04/11 05:40:58;;;;;;;7.25;3.38;;;2.60;99.90;;;;;;5019501;28;20457;-88
2022/04/11 05:43:24;;;;;;;7.70;3.47;;;2.70;99.90;;;;;;5035891;28;20075;-88
2022/04/11 05:45:49;;;;;;;11.20;3.42;;;3.00;99.90;;;;;;5053856;28;20324;-89
2022/04/11 05:48:15;;;;;;;10.75;3.38;;;2.80;99.90;;;;;;5019275;28;20057;-89
2022/04/11 05:50:41;;;;;;;6.57;3.55;;;3.00;99.90;;;;;;5035931;28;20044;-88
2022/04/11 05:53:06;;;;;;;8.20;3.65;;;3.00;99.90;;;;;;5019402;28;20398;-88
2022/04/11 05:55:32;;;;;;;9.13;3.15;;;3.10;99.90;;;;;;5035994;28;20045;-89
2022/04/11 05:57:59;;;;;;;11.65;3.97;;;3.20;99.90;;;;;;5018925;28;20061;-89
2022/04/11 06:00:25;;;;;;;9.27;4.22;;;3.30;99.90;;;;;;5036036;28;20076;-89
2022/04/11 06:02:51;;;;;;;7.18;4.28;;;3.40;99.90;;;;;;5035476;28;20037;-89
2022/04/11 06:05:17;;;;;;;9.48;3.67;;;3.40;99.90;;;;;;5019687;28;20048;-89
2022/04/11 06:07:43;;;;;;;7.57;4.10;;;3.70;99.90;;;;;;5053012;28;20395;-89
2022/04/11 06:10:09;;;;;;;9.68;3.90;;;3.50;99.90;;;;;;5019006;28;20052;-89
2022/04/11 06:12:35;;;;;;;8.90;3.95;;;3.60;99.90;;;;;;5052908;28;20045;-89
2022/04/11 06:15:01;;;;;;;10.25;4.05;;;3.70;99.90;;;;;;5035745;28;20103;-90
2022/04/11 06:17:27;;;;;;;8.07;3.78;;;3.70;99.90;;;;;;5035680;28;20115;-89
2022/04/11 06:19:54;;;;;;;8.25;3.80;;;3.90;99.90;;;;;;5052165;28;20506;-89
2022/04/11 06:22:20;;;;;;;8.38;3.85;;;4.00;99.90;;;;;;5018816;28;20056;-89
2022/04/11 06:24:47;;;;;;;11.00;3.40;;;4.20;99.90;;;;;;5019289;28;20057;-89
2022/04/11 06:27:13;;;;;;;8.68;3.55;;;4.30;99.90;;;;;;5034903;28;20068;-89
2022/04/11 06:29:39;;;;;;;8.32;3.35;;;4.40;99.90;;;;;;5035411;28;20045;-89
2022/04/11 06:32:05;;;;;;;10.50;3.58;;;4.50;99.90;;;;;;5035271;28;20044;-89
2022/04/11 06:34:35;;;;;;;7.13;3.47;;;4.70;99.90;;;;;;5018706;28;20065;-89
2022/04/11 06:37:01;;;;;;;13.30;3.40;;;4.80;99.90;;;;;;5035228;28;20505;-89
2022/04/11 06:39:27;;;;;;;7.38;3.63;;;5.00;99.90;;;;;;5035007;28;20053;-89
2022/04/11 06:41:53;;;;;;;8.18;3.55;;;5.40;99.90;;;;;;5018292;28;20491;-89
2022/04/11 06:44:19;;;;;;;8.88;3.83;;;5.20;99.90;;;;;;5035286;28;20064;-89
2022/04/11 06:46:45;;;;;;;6.85;3.63;;;5.70;99.90;;;;;;5052133;28;20049;-89
2022/04/11 06:49:11;;;;;;;6.97;3.72;;;5.70;99.90;;;;;;5018464;28;20056;-89
2022/04/11 06:51:36;;;;;;;8.10;3.78;;;5.60;99.90;;;;;;5051676;28;20040;-89
2022/04/11 06:54:02;;;;;;;11.45;4.00;;;5.70;99.90;;;;;;5033749;28;20053;-89
2022/04/11 06:56:28;;;;;;;8.68;3.97;;;5.80;99.90;;;;;;5018203;28;20045;-90
2022/04/11 06:58:54;;;;;;;8.35;3.95;;;5.90;99.90;;;;;;5017961;28;20513;-89
2022/04/11 07:01:20;;;;;;;8.57;3.75;;;6.00;99.90;;;;;;5018692;28;20049;-90
2022/04/11 07:03:45;;;;;;;9.35;3.70;;;6.10;99.90;;;;;;5018382;28;20045;-88
2022/04/11 07:06:11;;;;;;;6.97;3.85;;;6.10;99.90;;;;;;5018913;28;20048;-89
2022/04/11 07:08:36;;;;;;;6.28;4.03;;;6.20;99.90;;;;;;5034807;28;20132;-90
2022/04/11 07:11:04;;;;;;;9.73;3.75;;;6.40;99.90;;;;;;5017877;28;20494;-90
2022/04/11 07:13:30;;;;;;;7.82;4.45;;;6.40;99.90;;;;;;5018136;28;20405;-90
2022/04/11 07:15:56;;;;;;;6.97;3.80;;;6.60;99.90;;;;;;5051702;28;20044;-90
2022/04/11 07:18:27;;;;;;;7.65;3.72;;;6.70;99.90;;;;;;5017714;28;20056;-89
2022/04/11 07:20:53;;;;;;;8.98;4.32;;;6.80;99.90;;;;;;5035090;28;20150;-90
2022/04/11 07:23:19;;;;;;;5.40;3.88;;;6.90;99.90;;;;;;5034891;28;20383;-89
2022/04/11 07:25:45;;;;;;;10.25;4.38;;;7.10;99.90;;;;;;5034734;28;20049;-90
2022/04/11 07:28:11;;;;;;;7.60;4.13;;;7.20;99.90;;;;;;5034111;28;20055;-89
2022/04/11 07:30:37;;;;;;;7.20;4.50;;;7.20;99.90;;;;;;5018273;28;20061;-90
2022/04/11 07:33:03;;;;;;;10.32;4.70;;;7.40;99.90;;;;;;5034908;28;20052;-90
2022/04/11 07:35:29;;;;;;;6.38;4.00;;;7.50;99.90;;;;;;5034916;28;20096;-90
2022/04/11 07:37:57;;;;;;;9.40;4.32;;;7.80;99.90;;;;;;5051022;28;20131;-90
2022/04/11 07:40:24;;;;;;;7.50;4.68;;;7.80;99.90;;;;;;5034637;28;20041;-90
2022/04/11 07:42:51;;;;;;;9.02;4.57;;;7.90;99.90;;;;;;5018024;28;20107;-90
2022/04/11 07:45:18;;;;;;;12.63;4.60;;;8.00;99.90;;;;;;5054797;28;20045;-90
2022/04/11 07:47:44;;;;;;;9.85;4.28;;;8.20;99.90;;;;;;5022097;28;20049;-90
2022/04/11 07:50:10;;;;;;;10.10;4.43;;;8.30;99.90;;;;;;5055221;28;20486;-90
2022/04/11 07:52:39;;;;;;;8.93;4.93;;;8.50;99.90;;;;;;5022144;28;20483;-90
2022/04/11 07:55:07;;;;;;;12.35;5.00;;;8.60;99.90;;;;;;5021647;28;20053;-90
2022/04/11 07:57:33;;;;;;;7.80;5.03;;;8.70;99.90;;;;;;5020937;28;20100;-90
2022/04/11 07:59:58;;;;;;;9.88;4.57;;;8.80;99.90;;;;;;5055159;28;20080;-90
2022/04/11 08:02:27;;;;;;;11.50;5.45;;;9.10;99.90;;;;;;5054967;28;20053;-90
2022/04/11 08:04:53;;;;;;;9.20;5.32;;;9.00;99.90;;;;;;5038186;28;20490;-90
2022/04/11 08:07:20;;;;;;;7.30;4.70;;;9.10;99.90;;;;;;5038191;28;20090;-90
2022/04/11 08:09:46;;;;;;;8.68;4.75;;;9.30;99.90;;;;;;5038130;28;20124;-90
2022/04/11 08:12:11;;;;;;;8.52;4.68;;;9.40;99.90;;;;;;5021527;28;20523;-90
2022/04/11 08:14:37;;;;;;;8.23;4.55;;;9.60;99.90;;;;;;5055890;28;20410;-89
2022/04/11 08:17:03;;;;;;;9.68;5.07;;;9.70;99.90;;;;;;5038025;28;20045;-91
2022/04/11 08:19:30;;;;;;;8.40;4.97;;;9.90;99.90;;;;;;5021593;28;20049;-90
2022/04/11 08:21:56;;;;;;;10.35;5.35;;;10.10;99.90;;;;;;5054374;28;20041;-91
2022/04/11 08:24:21;;;;;;;7.13;4.60;;;10.20;99.90;;;;;;5037702;28;20115;-90
2022/04/11 08:26:47;;;;;;;10.38;5.57;;;10.30;99.90;;;;;;5021421;28;20045;-90
2022/04/11 08:29:13;;;;;;;8.80;4.50;;;10.50;99.90;;;;;;5038163;28;20048;-90
2022/04/11 08:31:39;;;;;;;10.88;5.07;;;10.60;99.90;;;;;;5021358;28;20059;-89
2022/04/11 08:34:05;;;;;;;6.93;4.90;;;10.80;99.90;;;;;;5054168;28;20395;-90
2022/04/11 08:36:31;;;;;;;9.05;4.78;;;11.00;99.90;;;;;;5037691;28;20041;-90
2022/04/11 08:38:56;;;;;;;11.95;5.32;;;11.30;99.90;;;;;;5054157;28;20110;-90
2022/04/11 08:41:26;;;;;;;8.68;5.05;;;11.80;99.90;;;;;;5021166;28;20557;-90
2022/04/11 08:43:53;;;;;;;10.50;4.97;;;12.20;99.90;;;;;;5037364;28;20052;-90
2022/04/11 08:46:20;;;;;;;8.70;4.85;;;12.80;99.90;;;;;;5037286;28;20080;-91
2022/04/11 08:48:46;;;;;;;11.20;5.38;;;13.10;99.90;;;;;;5037919;28;20083;-91
2022/04/11 08:51:12;;;;;;;11.52;5.25;;;13.90;99.90;;;;;;5037621;28;20049;-91
2022/04/11 08:53:38;;;;;;;8.13;5.00;;;14.80;96.40;;;;;;5037116;28;20045;-91
2022/04/11 08:56:04;;;;;;;7.55;4.65;;;15.60;89.10;;;;;;5052878;28;20222;-91
2022/04/11 08:58:29;;;;;;;6.90;4.70;;;16.40;82.50;;;;;;5020060;28;20489;-90
2022/04/11 09:00:55;;;;;;;7.05;4.00;;;17.10;75.10;;;;;;5054062;28;20393;-91
2022/04/11 09:03:21;;;;;;;6.85;4.40;;;17.10;67.20;;;;;;5053716;28;20048;-91
2022/04/11 09:06:09;;;;;;;11.15;4.68;;;17.00;65.10;;;;;;5037270;28;20060;-91
2022/04/11 09:08:49;;;;;;;6.97;4.20;;;16.70;62.60;;;;;;5053584;28;20052;-91
2022/04/11 09:11:34;;;;;;;7.82;4.25;;;16.70;64.30;;;;;;5021057;28;20051;-91
2022/04/11 09:14:04;;;;;;;7.25;4.15;;;16.80;67.10;;;;;;5036978;28;20414;-91
2022/04/11 09:16:48;;;;;;;5.20;3.65;;;17.30;65.20;;;;;;5020324;28;20041;-91
2022/04/11 09:19:25;;;;;;;6.60;4.35;;;18.20;58.80;;;;;;5020259;28;20498;-91
2022/04/11 09:21:54;;;;;;;8.50;4.25;;;18.80;59.80;;;;;;5036858;28;20041;-91
2022/04/11 09:24:22;;;;;;;8.55;4.72;;;19.20;56.70;;;;;;5037031;28;20056;-92
2022/04/11 09:26:51;;;;;;;6.88;4.60;;;19.70;53.80;;;;;;5020568;28;20123;-92
2022/04/11 09:29:17;;;;;;;6.30;4.50;;;20.30;51.90;;;;;;5037001;28;20183;-91
2022/04/11 09:31:43;;;;;;;8.88;4.82;;;20.90;51.40;;;;;;5020540;28;20095;-92
2022/04/11 09:34:25;;;;;;;9.57;4.57;;;21.40;49.30;;;;;;5020135;28;20064;-92
2022/04/11 09:37:00;;;;;;;6.00;5.03;;;21.80;47.00;;;;;;5036795;28;20041;-91
2022/04/11 09:39:26;;;;;;;6.07;4.72;;;22.10;45.00;;;;;;5037020;28;20053;-92
2022/04/11 09:41:53;;;;;;;7.53;5.18;;;22.20;45.70;;;;;;5037122;28;20087;-92
2022/04/11 09:44:19;;;;;;;10.20;5.20;;;22.30;45.40;;;;;;5053104;28;20402;-92
2022/04/11 09:46:44;;;;;;;5.40;4.45;;;22.30;44.30;;;;;;5036494;28;20053;-91
2022/04/11 09:49:10;;;;;;;8.07;5.15;;;22.40;44.30;;;;;;5036777;28;20178;-92
2022/04/11 09:51:36;;;;;;;6.65;4.90;;;22.70;43.00;;;;;;5019884;28;20060;-92
2022/04/11 09:54:25;;;;;;;7.85;5.00;;;22.80;41.70;;;;;;5019822;28;20506;-93
2022/04/11 09:56:53;;;;;;;7.57;4.95;;;22.80;41.10;;;;;;5036034;28;20406;-92
2022/04/11 09:59:20;;;;;;;8.80;5.28;;;22.80;41.40;;;;;;5036046;28;20044;-92
2022/04/11 10:01:48;;;;;;;8.48;5.28;;;23.00;41.90;;;;;;5019744;28;20052;-91
2022/04/11 10:04:14;;;;;;;7.50;5.20;;;23.10;41.30;;;;;;5019746;28;20053;-92
2022/04/11 10:06:40;;;;;;;6.82;5.07;;;23.20;41.40;;;;;;5019565;28;20048;-92
2022/04/11 10:09:05;;;;;;;5.90;4.55;;;23.40;41.50;;;;;;5019553;28;20048;-92
2022/04/11 10:11:31;;;;;;;7.03;5.28;;;23.50;40.60;;;;;;5035462;28;20406;-92
2022/04/11 10:13:59;;;;;;;6.50;5.20;;;23.40;40.60;;;;;;5019240;28;20401;-92
2022/04/11 10:16:25;;;;;;;7.93;5.38;;;23.50;41.20;;;;;;5036166;28;20057;-92
2022/04/11 10:18:51;;;;;;;7.63;5.32;;;23.60;41.30;;;;;;5035842;28;20045;-93
2022/04/11 10:21:17;;;;;;;9.35;5.85;;;23.50;40.70;;;;;;5035686;28;20052;-91
2022/04/11 10:23:59;;;;;;;10.25;5.35;;;23.60;40.10;;;;;;5019665;28;20051;-91
2022/04/11 10:26:31;;;;;;;7.40;5.68;;;23.60;38.10;;;;;;5019772;28;20053;-90
2022/04/11 10:28:58;;;;;;;8.63;5.20;;;23.60;39.60;;;;;;5019785;28;20111;-91
2022/04/11 10:31:36;;;;;;;8.30;5.03;;;23.70;40.10;;;;;;5035890;28;20084;-91
2022/04/11 10:34:01;;;;;;;8.15;5.07;;;23.90;38.50;;;;;;5019437;28;20103;-91
2022/04/11 10:36:38;;;;;;;8.73;5.55;;;24.20;39.10;;;;;;5053305;28;20049;-92
2022/04/11 10:39:16;;;;;;;7.40;5.00;;;24.40;39.10;;;;;;5019217;28;20052;-92
2022/04/11 10:41:54;;;;;;;9.90;5.82;;;24.60;38.60;;;;;;5035985;28;20111;-92
2022/04/11 10:44:42;;;;;;;9.50;5.93;;;24.60;37.20;;;;;;5035097;28;20490;-90
2022/04/11 10:47:08;;;;;;;6.72;5.38;;;24.60;36.30;;;;;;5019325;28;20502;-91
2022/04/11 10:49:49;;;;;;;9.82;5.57;;;24.60;37.60;;;;;;5035855;28;20077;-92
2022/04/11 10:52:32;;;;;;;10.10;5.57;;;24.80;38.00;;;;;;5019277;28;20047;-91
2022/04/11 10:55:14;;;;;;;8.50;5.28;;;24.90;37.70;;;;;;5019223;28;20136;-92
2022/04/11 10:57:43;;;;;;;8.63;5.57;;;25.00;37.70;;;;;;5019056;28;20483;-93
2022/04/11 11:00:31;;;;;;;7.78;6.03;;;24.70;37.70;;;;;;5018809;28;20049;-91
2022/04/11 11:03:00;;;;;;;7.60;6.03;;;24.60;37.20;;;;;;5052509;28;20048;-90
2022/04/11 11:05:48;;;;;;;7.47;5.85;;;24.60;36.30;;;;;;5035352;28;20044;-92
2022/04/11 11:08:23;;;;;;;8.75;5.68;;;24.30;34.80;;;;;;5019304;28;20136;-90
2022/04/11 11:11:27;;;;;;;9.88;6.05;;;23.60;35.90;;;;;;5035463;28;20059;-92
2022/04/11 11:13:55;;;;;;;8.43;5.68;;;23.60;37.40;;;;;;5018852;28;20053;-91
2022/04/11 11:16:20;;;;;;;6.53;5.30;;;23.80;38.20;;;;;;5018797;28;20482;-92
2022/04/11 11:18:46;;;;;;;7.30;5.65;;;24.30;38.40;;;;;;5020018;28;20072;-92
2022/04/11 11:21:47;;;;;;;9.88;6.20;;;24.70;38.80;;;;;;5022987;28;20041;-92
2022/04/11 11:24:14;;;;;;;8.73;5.95;;;25.00;35.50;;;;;;5023450;28;20051;-92
2022/04/11 11:26:49;;;;;;;11.18;6.40;;;24.90;35.50;;;;;;5023526;28;20041;-92
2022/04/11 11:29:30;;;;;;;9.05;6.22;;;24.80;34.80;;;;;;5023283;28;20131;-91
2022/04/11 11:31:58;;;;;;;9.52;6.25;;;24.90;34.70;;;;;;5023004;28;20059;-92
2022/04/11 11:34:27;;;;;;;11.40;7.13;;;25.00;35.00;;;;;;5023007;28;20052;-92
2022/04/11 11:36:57;;;;;;;9.30;7.00;;;24.90;33.80;;;;;;5022886;28;20094;-93
2022/04/11 11:39:24;;;;;;;8.25;5.95;;;24.70;35.00;;;;;;5039397;28;20109;-92
2022/04/11 11:41:52;;;;;;;11.85;6.97;;;24.70;36.50;;;;;;5022844;28;20048;-93
2022/04/11 11:44:18;;;;;;;12.05;7.35;;;25.10;35.40;;;;;;5022848;28;20044;-92
2022/04/11 11:46:53;;;;;;;9.98;6.35;;;25.20;35.20;;;;;;5039749;28;20045;-92
2022/04/11 11:49:20;;;;;;;7.15;5.93;;;25.20;34.90;;;;;;5039628;28;20048;-92
2022/04/11 11:51:49;;;;;;;11.32;6.55;;;25.20;34.90;;;;;;5039335;28;20123;-93
2022/04/11 11:54:35;;;;;;;8.35;6.20;;;25.30;34.80;;;;;;5039452;28;20218;-90
2022/04/11 11:57:02;;;;;;;8.82;6.57;;;25.20;32.60;;;;;;5038864;28;20106;-93
2022/04/11 11:59:28;;;;;;;12.23;6.93;;;25.00;34.30;;;;;;5039580;28;20098;-92
2022/04/11 12:04:39;;;;;;;9.63;6.55;;;25.20;33.10;;;;;;5039263;28;20104;-93
2022/04/11 12:07:05;;;;;;;9.10;6.18;;;25.30;33.50;;;;;;5022331;28;20040;-92
2022/04/11 12:09:36;;;;;;;9.77;7.20;;;25.50;33.80;;;;;;5038896;28;20053;-92
2022/04/11 12:12:06;;;;;;;10.07;6.53;;;25.70;33.20;;;;;;5039359;28;20044;-92
2022/04/11 12:15:05;;;;;;;10.23;6.63;;;25.40;32.90;;;;;;5022946;28;20044;-93
2022/04/11 12:17:33;;;;;;;8.82;6.88;;;24.90;32.90;;;;;;5022324;28;20048;-93
2022/04/11 12:20:11;;;;;;;9.18;6.28;;;24.90;34.20;;;;;;5022302;28;20128;-93
2022/04/11 12:22:37;;;;;;;11.93;7.07;;;25.20;34.50;;;;;;5022182;28;20076;-94
2022/04/11 12:25:22;;;;;;;8.82;6.07;;;25.20;33.70;;;;;;5038705;28;20045;-93
2022/04/11 12:27:49;;;;;;;8.30;6.30;;;25.20;34.30;;;;;;5022424;28;20076;-94
2022/04/11 12:30:15;;;;;;;9.45;6.65;;;25.30;34.40;;;;;;5023571;28;20056;-93
2022/04/11 12:32:41;;;;;;;8.20;6.32;;;25.20;34.60;;;;;;5038864;28;20088;-93
2022/04/11 12:35:18;;;;;;;9.50;6.68;;;25.30;34.80;;;;;;5055036;28;20088;-94
2022/04/11 12:37:51;;;;;;;10.27;6.95;;;25.50;35.10;;;;;;5022250;28;20045;-94
2022/04/11 12:40:18;;;;;;;9.77;6.88;;;25.60;34.40;;;;;;5022281;28;20048;-94
2022/04/11 12:42:44;;;;;;;13.20;7.47;;;25.90;34.50;;;;;;5021684;28;20075;-93
2022/04/11 12:45:13;;;;;;;9.13;7.10;;;26.20;34.90;;;;;;5038379;28;20095;-93
2022/04/11 12:48:02;;;;;;;11.43;8.13;;;26.50;35.10;;;;;;5021871;28;20041;-94
2022/04/11 12:50:28;;;;;;;11.30;8.23;;;26.50;34.00;;;;;;5038139;28;20494;-95
2022/04/11 12:52:54;;;;;;;10.70;7.30;;;26.40;33.80;;;;;;5022159;28;20127;-93
2022/04/11 12:55:28;;;;;;;10.85;8.13;;;26.00;34.20;;;;;;5038438;28;20063;-94